Yards, Virginia
Current Conditions -  °F | °C
As of 4:05 AM on Thursday 27 Nov 2014 (Local Time) from KBLF Reporting Station
Light Snow Light Snow  
Wind Chill: 34°   Ceiling: 3500
Heat Index: 34°   Visibility: 3mi
Dew Point: 31°   Wind: 3mph
Humidity: 89%   Direction: 270°W
Pressure: 29.93"   Gusts: NA
Location:  37.2441°N, 81.3675°W
Report Text: KBLF 270905Z AUTO 27003KT 3SM -SN BR FEW019 SCT030 OVC035 01/M01 A2993 RMK AO2 P0000 T00111006 $
Loading
Personal Weather Stations






























Interactive Weather Map New forecast layout! Learn more

10-Day Weather Forecast

Advertisements
Track Severe Weather on mobile